Time;durP1;ratioP1;P1;durP2;ratioP2;P2;SDS_P1;SDS_P2;PMS_P1;PMS_P2;Temp;Humidity;BMP_temperature;BMP_pressure;BME280_temperature;BME280_humidity;BME280_pressure;Samples;Min_cycle;Max_cycle;Signal;HPM_P1;HPM_P2
2021/03/02 00:02:14;;;;;;;18.80;10.30;;;4.10;99.90;;;;;;5047513;28;20228;-69
2021/03/02 00:05:00;;;;;;;16.95;9.93;;;3.70;99.90;;;;;;5048521;28;20490;-72
2021/03/02 00:07:45;;;;;;;25.92;10.52;;;3.80;99.90;;;;;;5045554;28;20229;-72
2021/03/02 00:10:31;;;;;;;19.63;10.77;;;3.80;99.90;;;;;;5047492;28;20571;-72
2021/03/02 00:13:16;;;;;;;17.23;9.80;;;3.70;99.90;;;;;;5045375;28;20304;-72
2021/03/02 00:16:04;;;;;;;19.65;9.40;;;3.80;99.90;;;;;;5045878;28;20467;-72
2021/03/02 00:18:55;;;;;;;14.15;10.20;;;3.80;99.90;;;;;;5052696;28;20250;-72
2021/03/02 00:21:43;;;;;;;20.70;10.85;;;3.80;99.90;;;;;;5043364;28;20200;-72
2021/03/02 00:24:32;;;;;;;14.05;8.98;;;3.90;99.90;;;;;;5045244;28;20516;-71
2021/03/02 00:27:19;;;;;;;17.25;9.25;;;3.90;99.90;;;;;;5045317;28;20220;-72
2021/03/02 00:30:06;;;;;;;16.43;10.00;;;3.80;99.90;;;;;;5042583;28;20696;-71
2021/03/02 00:32:52;;;;;;;18.15;10.07;;;3.70;99.90;;;;;;5042715;28;20914;-71
2021/03/02 00:35:37;;;;;;;17.88;9.43;;;3.80;99.90;;;;;;5044238;28;21016;-72
2021/03/02 00:38:23;;;;;;;15.27;10.05;;;3.90;99.90;;;;;;5045375;28;20220;-72
2021/03/02 00:41:08;;;;;;;16.90;9.45;;;3.90;99.90;;;;;;5046248;28;21184;-72
2021/03/02 00:43:53;;;;;;;16.48;9.25;;;4.00;99.90;;;;;;5038129;28;20236;-73
2021/03/02 00:46:38;;;;;;;15.63;9.63;;;4.00;99.90;;;;;;5044086;28;20283;-72
2021/03/02 00:49:23;;;;;;;18.10;9.35;;;4.00;99.90;;;;;;5044312;28;20479;-72
2021/03/02 00:52:08;;;;;;;17.42;10.38;;;3.90;99.90;;;;;;5051022;28;20209;-71
2021/03/02 00:54:55;;;;;;;17.20;8.95;;;3.90;99.90;;;;;;5043532;28;20244;-70
2021/03/02 00:57:40;;;;;;;16.30;9.47;;;3.90;99.90;;;;;;5041882;28;20197;-73
2021/03/02 01:00:25;;;;;;;14.65;8.88;;;3.80;99.90;;;;;;5046024;28;20847;-72
2021/03/02 01:03:11;;;;;;;13.05;9.15;;;3.80;99.90;;;;;;5040598;28;20360;-70
2021/03/02 01:05:56;;;;;;;15.85;9.20;;;3.90;99.90;;;;;;5042445;28;20224;-71
2021/03/02 01:08:42;;;;;;;15.30;8.25;;;3.80;99.90;;;;;;5042025;28;20305;-70
2021/03/02 01:11:28;;;;;;;13.57;8.55;;;3.70;99.90;;;;;;5043327;28;20224;-72
2021/03/02 01:14:13;;;;;;;17.65;9.55;;;3.70;99.90;;;;;;5045177;28;20208;-72
2021/03/02 01:16:59;;;;;;;16.13;8.88;;;3.70;99.90;;;;;;5047279;28;20279;-71
2021/03/02 01:19:44;;;;;;;11.38;7.38;;;3.70;99.90;;;;;;5045883;28;20204;-72
2021/03/02 01:22:29;;;;;;;20.77;9.13;;;3.70;99.90;;;;;;5040270;28;20220;-72
2021/03/02 01:25:15;;;;;;;12.55;8.77;;;3.60;99.90;;;;;;5045806;28;20338;-71
2021/03/02 01:28:01;;;;;;;13.35;8.88;;;3.60;99.90;;;;;;5044445;28;20275;-70
2021/03/02 01:30:46;;;;;;;15.13;8.20;;;3.50;99.90;;;;;;5042370;28;20252;-72
2021/03/02 01:33:31;;;;;;;16.35;8.95;;;3.50;99.90;;;;;;5047354;28;20526;-72
2021/03/02 01:36:16;;;;;;;15.68;8.98;;;3.40;99.90;;;;;;5046380;28;20717;-72
2021/03/02 01:39:01;;;;;;;16.20;9.65;;;3.50;99.90;;;;;;5045920;28;20247;-72
2021/03/02 01:41:49;;;;;;;12.05;8.13;;;3.40;99.90;;;;;;5045355;28;20255;-71
2021/03/02 01:44:35;;;;;;;14.18;8.70;;;3.30;99.90;;;;;;5047164;28;20208;-72
2021/03/02 01:47:20;;;;;;;13.95;7.45;;;3.40;99.90;;;;;;5048088;28;20227;-73
2021/03/02 01:50:07;;;;;;;17.70;9.07;;;3.50;99.90;;;;;;5052374;28;20205;-72
2021/03/02 01:52:53;;;;;;;11.93;7.97;;;3.50;99.90;;;;;;5044333;28;20924;-72
2021/03/02 01:55:37;;;;;;;14.98;7.35;;;3.40;99.90;;;;;;5045582;28;20223;-72
2021/03/02 01:58:23;;;;;;;17.55;8.50;;;3.40;99.90;;;;;;5044276;28;20239;-72
2021/03/02 02:01:09;;;;;;;9.60;6.88;;;3.40;99.90;;;;;;5045696;28;20205;-72
2021/03/02 02:03:59;;;;;;;17.08;8.35;;;3.30;99.90;;;;;;5043536;28;20199;-72
2021/03/02 02:06:47;;;;;;;14.77;7.43;;;3.30;99.90;;;;;;5044358;28;20790;-71
2021/03/02 02:09:41;;;;;;;11.23;6.70;;;3.40;99.90;;;;;;5045662;28;20278;-72
2021/03/02 02:12:30;;;;;;;16.60;8.98;;;3.40;99.90;;;;;;5046780;28;20225;-72
2021/03/02 02:15:20;;;;;;;13.00;7.47;;;3.50;99.90;;;;;;5045925;28;20220;-71
2021/03/02 02:18:10;;;;;;;11.77;6.78;;;3.40;99.90;;;;;;5046979;28;20281;-71
2021/03/02 02:21:07;;;;;;;15.35;7.35;;;3.30;99.90;;;;;;5054302;28;20213;-72
2021/03/02 02:24:08;;;;;;;12.50;7.70;;;3.20;99.90;;;;;;5043363;28;20199;-71
2021/03/02 02:26:57;;;;;;;12.38;7.40;;;3.30;99.90;;;;;;5043327;28;20220;-71
2021/03/02 02:29:42;;;;;;;9.27;6.78;;;3.50;99.90;;;;;;5039727;28;20237;-71
2021/03/02 02:32:30;;;;;;;11.15;6.97;;;3.50;99.90;;;;;;5042004;28;20230;-71
2021/03/02 02:35:18;;;;;;;10.68;7.20;;;3.40;99.90;;;;;;5046055;28;20251;-69
2021/03/02 02:38:06;;;;;;;12.82;6.95;;;3.50;99.90;;;;;;5047598;28;20286;-72
2021/03/02 02:40:51;;;;;;;12.02;7.40;;;3.50;99.90;;;;;;5049286;28;20303;-72
2021/03/02 02:43:38;;;;;;;11.57;7.05;;;3.40;99.90;;;;;;5054988;28;20236;-71
2021/03/02 02:46:26;;;;;;;11.25;6.43;;;3.30;99.90;;;;;;5052418;28;20285;-72
2021/03/02 02:49:12;;;;;;;11.65;6.22;;;3.40;99.90;;;;;;5056383;28;20229;-71
2021/03/02 02:51:58;;;;;;;10.20;6.88;;;3.40;99.90;;;;;;5046338;28;20208;-72
2021/03/02 02:54:43;;;;;;;9.25;6.13;;;3.40;99.90;;;;;;5041946;28;20255;-71
2021/03/02 02:57:31;;;;;;;15.75;6.40;;;3.40;99.90;;;;;;5050137;28;20224;-71
2021/03/02 03:00:21;;;;;;;8.85;6.25;;;3.40;99.90;;;;;;5039339;28;20316;-72
2021/03/02 03:03:11;;;;;;;14.57;6.72;;;3.50;99.90;;;;;;5048013;28;20694;-71
2021/03/02 03:05:59;;;;;;;9.45;5.35;;;3.40;99.90;;;;;;5047020;28;22836;-70
2021/03/02 03:08:50;;;;;;;10.20;6.22;;;3.30;99.90;;;;;;5042036;28;20605;-72
2021/03/02 03:11:41;;;;;;;8.13;5.68;;;3.20;99.90;;;;;;5044446;28;20329;-72
2021/03/02 03:14:28;;;;;;;9.90;6.70;;;3.20;99.90;;;;;;5045780;28;20681;-72
2021/03/02 03:17:16;;;;;;;11.43;5.75;;;3.30;99.90;;;;;;5046422;28;20224;-71
2021/03/02 03:20:03;;;;;;;12.10;6.80;;;3.20;99.90;;;;;;5051331;28;20282;-72
2021/03/02 03:22:49;;;;;;;10.77;7.10;;;3.20;99.90;;;;;;5047862;28;20244;-72
2021/03/02 03:25:35;;;;;;;12.70;6.60;;;3.20;99.90;;;;;;5047540;28;20728;-72
2021/03/02 03:28:21;;;;;;;12.35;6.72;;;3.10;99.90;;;;;;5046675;28;20653;-72
2021/03/02 03:31:11;;;;;;;9.75;6.07;;;3.00;99.90;;;;;;5045949;28;20344;-72
2021/03/02 03:33:59;;;;;;;9.43;5.47;;;2.90;99.90;;;;;;5047833;28;20267;-72
2021/03/02 03:36:45;;;;;;;7.93;5.28;;;2.90;99.90;;;;;;5048768;28;20317;-72
2021/03/02 03:39:30;;;;;;;9.55;6.70;;;2.90;99.90;;;;;;5047887;28;20270;-71
2021/03/02 03:42:15;;;;;;;9.40;6.03;;;2.90;99.90;;;;;;5046914;28;20244;-72
2021/03/02 03:45:00;;;;;;;9.90;5.65;;;3.00;99.90;;;;;;5047107;28;20294;-71
2021/03/02 03:47:46;;;;;;;11.00;7.50;;;3.00;99.90;;;;;;5047026;28;20224;-74
2021/03/02 03:50:33;;;;;;;11.70;7.15;;;3.10;99.90;;;;;;5046114;28;20500;-72
2021/03/02 03:53:20;;;;;;;11.35;6.95;;;3.10;99.90;;;;;;5046994;28;20232;-71
2021/03/02 03:56:07;;;;;;;15.65;7.28;;;3.30;99.90;;;;;;5047428;28;20660;-71
2021/03/02 03:58:53;;;;;;;11.65;6.60;;;3.30;99.90;;;;;;5046143;28;20205;-72
2021/03/02 04:01:39;;;;;;;10.75;6.70;;;3.10;99.90;;;;;;5047136;28;20580;-72
2021/03/02 04:04:26;;;;;;;15.15;6.90;;;3.30;99.90;;;;;;5047530;28;20200;-72
2021/03/02 04:07:12;;;;;;;11.20;6.00;;;3.30;99.90;;;;;;5045634;28;20228;-71
2021/03/02 04:09:58;;;;;;;10.70;7.90;;;3.50;99.90;;;;;;5047430;28;20224;-71
2021/03/02 04:12:45;;;;;;;10.63;6.68;;;3.50;99.90;;;;;;5048421;28;20199;-72
2021/03/02 04:15:30;;;;;;;11.57;7.32;;;3.40;99.90;;;;;;5045279;28;20668;-72
2021/03/02 04:18:17;;;;;;;16.60;7.22;;;3.50;99.90;;;;;;5053981;28;20694;-72
2021/03/02 04:21:02;;;;;;;12.18;6.88;;;3.40;99.90;;;;;;5047284;28;20584;-70
2021/03/02 04:23:48;;;;;;;12.82;7.40;;;3.50;99.90;;;;;;5051345;28;20724;-72
2021/03/02 04:26:33;;;;;;;11.35;7.35;;;3.50;99.90;;;;;;5047756;28;20228;-72
2021/03/02 04:29:18;;;;;;;12.50;7.28;;;3.40;99.90;;;;;;5043548;28;20263;-71
2021/03/02 04:32:03;;;;;;;16.33;8.50;;;3.30;99.90;;;;;;5043386;28;20232;-72
2021/03/02 04:34:48;;;;;;;13.07;6.93;;;3.30;99.90;;;;;;5046281;28;20224;-70
2021/03/02 04:37:33;;;;;;;9.05;6.68;;;3.10;99.90;;;;;;5046811;28;20288;-72
2021/03/02 04:40:19;;;;;;;13.85;7.65;;;2.90;99.90;;;;;;5043576;28;20197;-71
2021/03/02 04:43:04;;;;;;;13.43;7.90;;;2.90;99.90;;;;;;5045090;28;20324;-72
2021/03/02 04:45:50;;;;;;;16.05;8.07;;;2.90;99.90;;;;;;5045267;28;20225;-70
2021/03/02 04:48:35;;;;;;;14.20;9.32;;;3.00;99.90;;;;;;5045579;28;20235;-71
2021/03/02 04:51:20;;;;;;;18.15;9.25;;;2.80;99.90;;;;;;5047578;28;20259;-72
2021/03/02 04:54:05;;;;;;;16.95;9.25;;;2.90;99.90;;;;;;5043992;28;20209;-71
2021/03/02 04:56:52;;;;;;;16.50;9.30;;;3.00;99.90;;;;;;5047143;28;20764;-72
2021/03/02 04:59:37;;;;;;;16.73;8.65;;;3.00;99.90;;;;;;5040861;28;20279;-72
2021/03/02 05:02:22;;;;;;;13.65;8.52;;;3.00;99.90;;;;;;5046613;28;20205;-70
2021/03/02 05:05:08;;;;;;;14.32;8.95;;;3.20;99.90;;;;;;5047934;28;20242;-70
2021/03/02 05:07:54;;;;;;;14.40;7.47;;;3.10;99.90;;;;;;5048288;28;20755;-72
2021/03/02 05:10:39;;;;;;;12.85;8.45;;;3.10;99.90;;;;;;5048209;28;20243;-71
2021/03/02 05:13:25;;;;;;;20.00;8.48;;;3.10;99.90;;;;;;5044532;28;20248;-72
2021/03/02 05:16:11;;;;;;;11.68;8.27;;;3.10;99.90;;;;;;5048210;28;20693;-72
2021/03/02 05:18:56;;;;;;;24.88;9.40;;;3.20;99.90;;;;;;5047247;28;20628;-71
2021/03/02 05:21:41;;;;;;;16.70;8.68;;;3.10;99.90;;;;;;5046465;28;20204;-72
2021/03/02 05:24:26;;;;;;;14.02;9.05;;;3.10;99.90;;;;;;5046038;28;20197;-72
2021/03/02 05:27:11;;;;;;;13.02;8.43;;;3.10;99.90;;;;;;5052513;28;20823;-72
2021/03/02 05:29:57;;;;;;;15.88;8.90;;;3.00;99.90;;;;;;5043839;28;20225;-72
2021/03/02 05:32:42;;;;;;;13.63;7.95;;;3.10;99.90;;;;;;5045585;28;20213;-71
2021/03/02 05:35:28;;;;;;;12.30;8.45;;;3.20;99.90;;;;;;5046113;28;20228;-72
2021/03/02 05:38:13;;;;;;;14.25;9.10;;;3.00;99.90;;;;;;5046329;28;20211;-72
2021/03/02 05:40:58;;;;;;;18.73;9.00;;;3.00;99.90;;;;;;5045805;28;20585;-71
2021/03/02 05:43:44;;;;;;;15.48;9.10;;;3.00;99.90;;;;;;5043558;28;20594;-73
2021/03/02 05:46:30;;;;;;;15.40;8.65;;;3.10;99.90;;;;;;5042114;28;20232;-71
2021/03/02 05:49:15;;;;;;;19.13;9.57;;;2.90;99.90;;;;;;5050216;28;20708;-72
2021/03/02 05:52:01;;;;;;;14.77;8.52;;;3.00;99.90;;;;;;5044946;28;20572;-72
2021/03/02 05:54:47;;;;;;;20.45;9.63;;;3.00;99.90;;;;;;5043134;28;20216;-72
2021/03/02 05:57:33;;;;;;;14.15;9.63;;;3.00;99.90;;;;;;5040990;28;20289;-72
2021/03/02 06:00:19;;;;;;;19.33;10.10;;;3.00;99.90;;;;;;5042605;28;20219;-72
2021/03/02 06:03:06;;;;;;;15.27;9.65;;;2.90;99.90;;;;;;5045965;28;20209;-72
2021/03/02 06:05:51;;;;;;;20.67;9.25;;;2.90;99.90;;;;;;5042228;28;20229;-71
2021/03/02 06:08:36;;;;;;;18.10;9.38;;;3.00;99.90;;;;;;5041556;28;20267;-71
2021/03/02 06:11:30;;;;;;;14.63;9.10;;;3.00;99.90;;;;;;5045739;28;20268;-71
2021/03/02 06:14:21;;;;;;;16.90;9.18;;;2.90;99.90;;;;;;5044288;28;20261;-72
2021/03/02 06:17:07;;;;;;;13.23;8.77;;;2.80;99.90;;;;;;5050068;28;20244;-71
2021/03/02 06:19:53;;;;;;;16.27;9.57;;;2.70;99.90;;;;;;5053019;28;20204;-72
2021/03/02 06:22:39;;;;;;;14.27;9.90;;;2.60;99.90;;;;;;5047906;28;20654;-72
2021/03/02 06:25:29;;;;;;;17.08;10.43;;;2.60;99.90;;;;;;5048976;28;20761;-72
2021/03/02 06:28:31;;;;;;;15.40;9.75;;;2.70;99.90;;;;;;5049265;28;20235;-71
2021/03/02 06:31:32;;;;;;;14.65;9.68;;;2.80;99.90;;;;;;5047761;28;20200;-72
2021/03/02 06:34:19;;;;;;;16.58;10.45;;;2.70;99.90;;;;;;5047988;28;20242;-71
2021/03/02 06:37:06;;;;;;;18.17;11.25;;;2.80;99.90;;;;;;5049124;28;20657;-71
2021/03/02 06:39:51;;;;;;;19.23;10.20;;;2.90;99.90;;;;;;5051019;28;20305;-72
2021/03/02 06:42:40;;;;;;;16.85;10.07;;;2.90;99.90;;;;;;5046340;28;20252;-71
2021/03/02 06:45:25;;;;;;;15.52;10.20;;;3.10;99.90;;;;;;5049320;28;20308;-71
2021/03/02 06:48:11;;;;;;;16.92;10.73;;;2.90;99.90;;;;;;5051080;28;20314;-72
2021/03/02 06:50:56;;;;;;;18.55;10.00;;;3.00;99.90;;;;;;5049727;28;20209;-71
2021/03/02 06:54:01;;;;;;;15.27;9.50;;;3.00;99.90;;;;;;5049211;28;20243;-72
2021/03/02 06:57:00;;;;;;;19.55;11.10;;;3.00;99.90;;;;;;5049966;28;20591;-71
2021/03/02 06:59:51;;;;;;;17.30;10.25;;;3.10;99.90;;;;;;5045747;28;20530;-72
2021/03/02 07:02:38;;;;;;;16.08;9.95;;;3.10;99.90;;;;;;5045696;28;20284;-72
2021/03/02 07:05:23;;;;;;;15.75;9.68;;;3.20;99.90;;;;;;5047965;28;20275;-72
2021/03/02 07:08:08;;;;;;;15.52;9.05;;;3.40;99.90;;;;;;5047855;28;20569;-71
2021/03/02 07:10:54;;;;;;;16.63;9.90;;;3.50;99.90;;;;;;5046368;28;20213;-71
2021/03/02 07:13:40;;;;;;;15.35;8.68;;;3.60;99.90;;;;;;5049877;28;20286;-71
2021/03/02 07:16:25;;;;;;;22.33;9.60;;;3.70;99.90;;;;;;5044851;28;20322;-72
2021/03/02 07:19:15;;;;;;;16.13;9.77;;;3.80;99.90;;;;;;5056131;28;20208;-72
2021/03/02 07:22:01;;;;;;;17.10;10.27;;;4.00;99.90;;;;;;5047597;28;20263;-71
2021/03/02 07:24:47;;;;;;;13.87;8.93;;;4.00;99.90;;;;;;5045758;28;20324;-71
2021/03/02 07:27:35;;;;;;;22.00;10.70;;;4.10;99.90;;;;;;5046752;28;20960;-72
2021/03/02 07:30:21;;;;;;;15.43;10.27;;;4.10;99.90;;;;;;5049516;28;20448;-71
2021/03/02 07:33:07;;;;;;;16.77;10.60;;;4.30;99.90;;;;;;5049119;28;20215;-72
2021/03/02 07:35:56;;;;;;;18.33;11.38;;;4.30;99.90;;;;;;5045945;28;20886;-72
2021/03/02 07:38:41;;;;;;;19.15;11.73;;;4.40;99.90;;;;;;5046788;28;20279;-71
2021/03/02 07:41:34;;;;;;;18.27;11.20;;;4.50;99.90;;;;;;5047124;28;20220;-70
2021/03/02 07:44:21;;;;;;;16.92;10.27;;;4.60;99.90;;;;;;5047503;28;20200;-71
2021/03/02 07:47:06;;;;;;;17.60;11.65;;;4.70;99.90;;;;;;5039667;28;20594;-72
2021/03/02 07:49:51;;;;;;;20.73;12.00;;;4.90;99.90;;;;;;5053100;28;20223;-70
2021/03/02 07:52:36;;;;;;;21.83;12.10;;;5.00;99.90;;;;;;5047938;28;20521;-72
2021/03/02 07:55:23;;;;;;;21.73;12.75;;;5.20;99.90;;;;;;5049236;28;20477;-71
2021/03/02 07:58:16;;;;;;;24.47;12.70;;;5.40;99.90;;;;;;5045945;28;20324;-72
2021/03/02 08:01:19;;;;;;;18.43;12.03;;;5.50;99.90;;;;;;5045616;28;20712;-72
2021/03/02 08:04:25;;;;;;;17.73;12.13;;;5.70;99.90;;;;;;5045869;28;20535;-72
2021/03/02 08:07:24;;;;;;;24.65;12.93;;;5.90;99.90;;;;;;5047232;28;20471;-72
2021/03/02 08:10:34;;;;;;;22.23;14.07;;;6.10;99.90;;;;;;5051670;28;20303;-72
2021/03/02 08:13:35;;;;;;;29.53;14.13;;;6.30;99.90;;;;;;5041140;28;20819;-72
2021/03/02 08:16:55;;;;;;;22.03;13.90;;;6.50;99.90;;;;;;5042251;28;21082;-71
2021/03/02 08:19:41;;;;;;;18.40;12.77;;;6.70;99.90;;;;;;5046915;28;20892;-71
2021/03/02 08:22:47;;;;;;;19.87;12.43;;;6.90;99.90;;;;;;5047318;28;20439;-71
2021/03/02 08:25:35;;;;;;;22.47;14.30;;;7.10;99.90;;;;;;5048552;28;20490;-72
2021/03/02 08:28:20;;;;;;;24.00;11.60;;;7.40;99.90;;;;;;5041253;28;20474;-71
2021/03/02 08:31:11;;;;;;;21.70;14.00;;;7.60;99.90;;;;;;5055685;28;20571;-72
2021/03/02 08:33:59;;;;;;;19.70;12.37;;;7.80;99.90;;;;;;5045503;28;20579;-70
2021/03/02 08:36:49;;;;;;;16.53;11.07;;;8.10;99.90;;;;;;5043613;28;20822;-71
2021/03/02 08:39:34;;;;;;;19.47;11.37;;;8.30;99.90;;;;;;5046413;28;20825;-72
2021/03/02 08:42:19;;;;;;;21.70;11.20;;;8.50;99.90;;;;;;5042007;28;20431;-71
2021/03/02 08:45:08;;;;;;;19.70;12.03;;;8.70;99.90;;;;;;5044973;28;20960;-72
2021/03/02 08:47:53;;;;;;;23.20;11.57;;;8.90;99.90;;;;;;5055134;28;20429;-72
2021/03/02 08:50:39;;;;;;;16.33;10.20;;;9.10;99.90;;;;;;5045298;28;20505;-71
2021/03/02 08:53:33;;;;;;;18.50;12.00;;;9.20;99.90;;;;;;5042909;28;20480;-71
2021/03/02 08:56:20;;;;;;;20.80;12.30;;;9.30;99.90;;;;;;5048606;28;20479;-72
2021/03/02 08:59:07;;;;;;;17.13;10.83;;;9.50;99.90;;;;;;5048091;28;20530;-71
2021/03/02 09:01:56;;;;;;;17.20;10.70;;;9.70;99.90;;;;;;5048869;28;20478;-71
2021/03/02 09:04:41;;;;;;;22.30;13.13;;;9.90;99.90;;;;;;5043504;28;20586;-71
2021/03/02 09:07:27;;;;;;;19.97;12.03;;;10.10;99.90;;;;;;5049685;28;20446;-70
2021/03/02 09:10:17;;;;;;;20.30;11.13;;;10.20;99.90;;;;;;5047482;28;20494;-71
2021/03/02 09:13:05;;;;;;;21.93;12.53;;;10.40;99.90;;;;;;5046571;28;20422;-72
2021/03/02 09:15:50;;;;;;;20.77;11.80;;;10.60;99.90;;;;;;5040840;28;20526;-71
2021/03/02 09:18:36;;;;;;;16.33;11.23;;;10.70;99.90;;;;;;5044140;28;20452;-72
2021/03/02 09:21:21;;;;;;;16.00;10.60;;;10.90;99.90;;;;;;5045358;28;20418;-72
2021/03/02 09:24:08;;;;;;;19.47;10.63;;;11.00;99.90;;;;;;5044509;28;20470;-71
2021/03/02 09:26:59;;;;;;;20.60;11.10;;;11.20;99.50;;;;;;5042958;28;20844;-72
2021/03/02 09:29:47;;;;;;;18.00;11.90;;;11.40;97.60;;;;;;5045253;28;20563;-72
2021/03/02 09:32:34;;;;;;;18.90;11.50;;;11.50;96.60;;;;;;5040169;28;21107;-72
2021/03/02 09:35:21;;;;;;;15.97;10.50;;;11.60;94.70;;;;;;5040485;28;20819;-71
2021/03/02 09:38:06;;;;;;;21.20;11.93;;;11.80;92.70;;;;;;5045963;28;20487;-72
2021/03/02 09:40:52;;;;;;;18.00;11.70;;;11.90;91.60;;;;;;5040938;28;20493;-72
2021/03/02 09:43:39;;;;;;;17.77;11.00;;;12.10;91.30;;;;;;5045994;28;20856;-71
2021/03/02 09:46:38;;;;;;;19.67;11.43;;;12.30;87.00;;;;;;5044093;28;20492;-72
2021/03/02 09:49:44;;;;;;;15.50;10.50;;;12.40;84.70;;;;;;5041933;28;20470;-71
2021/03/02 09:52:34;;;;;;;15.07;10.63;;;12.60;79.70;;;;;;5042249;28;20442;-72
2021/03/02 09:55:29;;;;;;;16.67;10.87;;;12.80;78.00;;;;;;5043834;28;20458;-70
2021/03/02 09:58:18;;;;;;;15.07;9.63;;;12.90;76.20;;;;;;5044703;28;20510;-71
2021/03/02 10:01:04;;;;;;;14.97;9.70;;;13.00;77.00;;;;;;5045598;28;20458;-72
2021/03/02 10:03:49;;;;;;;15.87;10.30;;;13.10;76.70;;;;;;5047478;28;20801;-72
2021/03/02 10:06:34;;;;;;;16.93;9.40;;;13.30;71.10;;;;;;5046081;28;20806;-72
2021/03/02 10:09:24;;;;;;;24.80;11.47;;;13.50;70.60;;;;;;5046181;28;20493;-71
2021/03/02 10:12:12;;;;;;;15.83;10.20;;;13.60;66.40;;;;;;5053281;28;20469;-71
2021/03/02 10:14:58;;;;;;;16.43;10.07;;;13.70;64.70;;;;;;5050369;28;20839;-71
2021/03/02 10:17:43;;;;;;;16.60;11.37;;;13.70;64.30;;;;;;5047614;28;20477;-70
2021/03/02 10:20:28;;;;;;;15.10;9.93;;;13.80;64.80;;;;;;5044420;28;20486;-71
2021/03/02 10:23:14;;;;;;;20.30;10.60;;;14.10;64.80;;;;;;5046728;28;20451;-71
2021/03/02 10:26:00;;;;;;;19.07;10.97;;;14.20;61.70;;;;;;5042237;28;20430;-71
2021/03/02 10:28:45;;;;;;;17.43;10.37;;;14.20;60.20;;;;;;5044925;28;21041;-70
2021/03/02 10:31:31;;;;;;;16.07;10.10;;;14.40;60.40;;;;;;5047184;28;20925;-71
2021/03/02 10:34:17;;;;;;;19.20;11.23;;;14.50;58.70;;;;;;5039083;28;20951;-71
2021/03/02 10:37:04;;;;;;;15.03;10.43;;;14.50;57.10;;;;;;5051533;28;20444;-69
2021/03/02 10:39:49;;;;;;;16.90;11.10;;;14.60;57.70;;;;;;5033783;28;20462;-71
2021/03/02 10:42:35;;;;;;;16.23;10.63;;;14.70;56.00;;;;;;5037724;28;20870;-71
2021/03/02 10:45:21;;;;;;;17.70;10.87;;;14.70;56.00;;;;;;5041887;28;20534;-71
2021/03/02 10:48:07;;;;;;;16.03;10.47;;;14.80;55.20;;;;;;5040812;28;20419;-71
2021/03/02 10:50:53;;;;;;;21.23;10.27;;;14.90;55.20;;;;;;5044495;28;20450;-71
2021/03/02 10:53:38;;;;;;;19.57;10.13;;;14.80;53.40;;;;;;5033825;28;20430;-69
2021/03/02 10:56:23;;;;;;;17.00;10.93;;;14.90;53.10;;;;;;5040448;28;20533;-71
2021/03/02 10:59:09;;;;;;;18.47;11.00;;;15.00;53.30;;;;;;5046405;28;20465;-71
2021/03/02 11:01:54;;;;;;;19.10;12.20;;;15.10;54.30;;;;;;5046366;28;20590;-69
2021/03/02 11:04:40;;;;;;;20.20;10.50;;;15.30;55.50;;;;;;5044620;28;20447;-71
2021/03/02 11:07:25;;;;;;;17.60;10.50;;;15.60;53.70;;;;;;5042847;28;20449;-71
2021/03/02 11:10:11;;;;;;;14.80;10.53;;;15.70;53.00;;;;;;5045007;28;20491;-71
2021/03/02 11:12:56;;;;;;;17.60;11.97;;;15.80;53.20;;;;;;5052158;28;20498;-71
2021/03/02 11:15:41;;;;;;;16.53;11.27;;;15.80;51.50;;;;;;5047805;28;20471;-71
2021/03/02 11:18:26;;;;;;;16.87;12.80;;;15.60;50.90;;;;;;5040631;28;20528;-71
2021/03/02 11:21:13;;;;;;;19.03;13.10;;;15.40;52.60;;;;;;5056145;28;20881;-71
2021/03/02 11:23:58;;;;;;;16.67;11.67;;;15.40;54.00;;;;;;5040100;28;20426;-69
2021/03/02 11:26:43;;;;;;;18.63;12.80;;;15.60;53.30;;;;;;5041119;28;20462;-69
2021/03/02 11:29:28;;;;;;;16.70;12.63;;;15.50;52.40;;;;;;5057363;28;20462;-71
2021/03/02 11:32:14;;;;;;;18.47;12.40;;;15.70;54.00;;;;;;5047445;28;20421;-70
2021/03/02 11:34:59;;;;;;;18.83;11.77;;;15.80;53.80;;;;;;5048172;28;21275;-69
2021/03/02 11:37:45;;;;;;;21.80;12.30;;;16.00;51.30;;;;;;5041297;28;20824;-69
2021/03/02 11:40:31;;;;;;;21.17;12.43;;;16.20;52.10;;;;;;5054455;28;21035;-71
2021/03/02 11:43:16;;;;;;;19.00;12.83;;;16.40;50.90;;;;;;5052259;28;20518;-71
2021/03/02 11:46:03;;;;;;;22.17;14.37;;;16.30;50.40;;;;;;5059213;28;20556;-71
2021/03/02 11:48:48;;;;;;;21.00;12.80;;;16.00;49.10;;;;;;5046793;28;20601;-71
2021/03/02 11:51:33;;;;;;;17.73;12.20;;;15.90;51.00;;;;;;5056611;28;20450;-71
2021/03/02 11:54:20;;;;;;;20.63;13.47;;;15.70;50.40;;;;;;5055122;28;20833;-71
2021/03/02 11:57:06;;;;;;;16.00;12.23;;;15.70;51.00;;;;;;5055483;28;20514;-72
2021/03/02 11:59:51;;;;;;;26.87;13.73;;;15.90;51.40;;;;;;5055410;28;20987;-71
2021/03/02 12:02:36;;;;;;;18.03;12.90;;;16.00;51.10;;;;;;5056771;28;20447;-70
2021/03/02 12:05:22;;;;;;;19.30;12.53;;;16.00;50.50;;;;;;5053359;28;20454;-70
2021/03/02 12:08:07;;;;;;;17.67;12.93;;;16.00;49.10;;;;;;5059935;28;20445;-71
2021/03/02 12:10:53;;;;;;;16.70;11.93;;;16.30;49.40;;;;;;5048461;28;20430;-71
2021/03/02 12:13:38;;;;;;;21.40;11.27;;;16.50;49.20;;;;;;5055508;28;20544;-72
2021/03/02 12:16:23;;;;;;;18.87;11.60;;;16.80;48.90;;;;;;5042207;28;20571;-71
2021/03/02 12:19:08;;;;;;;19.70;12.60;;;17.10;48.00;;;;;;5040007;28;20996;-70
2021/03/02 12:21:53;;;;;;;16.63;11.87;;;17.30;47.80;;;;;;5045557;28;20445;-71
2021/03/02 12:24:38;;;;;;;16.83;11.63;;;17.50;47.20;;;;;;5046302;28;20566;-71
2021/03/02 12:27:24;;;;;;;16.47;11.50;;;17.60;46.50;;;;;;5046670;28;20451;-71
2021/03/02 12:30:11;;;;;;;17.13;11.60;;;17.70;46.40;;;;;;5048295;28;20861;-71
2021/03/02 12:32:56;;;;;;;16.17;10.33;;;17.90;46.40;;;;;;5041720;28;20523;-71
2021/03/02 12:35:41;;;;;;;18.60;11.37;;;17.80;43.60;;;;;;5047823;28;20479;-71
2021/03/02 12:38:26;;;;;;;20.33;12.17;;;17.50;44.70;;;;;;5046074;28;20454;-70
2021/03/02 12:41:12;;;;;;;16.47;11.10;;;17.70;45.00;;;;;;5043706;28;20430;-71
2021/03/02 12:43:58;;;;;;;19.40;12.33;;;17.90;44.80;;;;;;5046332;28;20451;-72
2021/03/02 12:46:43;;;;;;;16.70;11.50;;;18.00;45.20;;;;;;5043470;28;20442;-72
2021/03/02 12:49:28;;;;;;;17.23;11.70;;;17.90;43.50;;;;;;5039035;28;20440;-70
2021/03/02 12:52:13;;;;;;;21.07;12.67;;;17.70;43.40;;;;;;5057833;28;20521;-72
2021/03/02 12:54:58;;;;;;;17.13;11.40;;;17.80;45.00;;;;;;5055004;28;20590;-70
2021/03/02 12:57:43;;;;;;;14.90;10.57;;;18.10;45.90;;;;;;5046452;28;20472;-71
2021/03/02 13:00:29;;;;;;;15.63;11.37;;;18.50;43.40;;;;;;5047387;28;20498;-70
2021/03/02 13:03:15;;;;;;;16.30;11.67;;;18.40;42.60;;;;;;5041491;28;20541;-72
2021/03/02 13:06:00;;;;;;;17.10;12.07;;;18.50;42.20;;;;;;5045136;28;20528;-70
2021/03/02 13:08:47;;;;;;;14.67;11.27;;;18.60;43.30;;;;;;5046655;28;20446;-70
2021/03/02 13:11:33;;;;;;;15.90;11.77;;;18.40;42.30;;;;;;5045463;28;20988;-70
2021/03/02 13:14:18;;;;;;;16.90;10.27;;;18.10;43.10;;;;;;5046933;28;20465;-71
2021/03/02 13:17:04;;;;;;;15.47;11.40;;;18.30;42.80;;;;;;5046051;28;20490;-70
2021/03/02 13:19:50;;;;;;;19.90;13.20;;;18.60;42.20;;;;;;5053021;28;20442;-69
2021/03/02 13:22:36;;;;;;;15.77;12.53;;;18.80;42.10;;;;;;5043461;28;20465;-70
2021/03/02 13:25:21;;;;;;;16.03;11.53;;;18.90;40.00;;;;;;5050674;28;20861;-70
2021/03/02 13:28:07;;;;;;;18.73;12.20;;;19.00;40.40;;;;;;5041185;28;20451;-71
2021/03/02 13:30:55;;;;;;;17.93;12.00;;;19.10;41.30;;;;;;5042593;28;20483;-70
2021/03/02 13:33:44;;;;;;;17.93;11.87;;;19.30;41.50;;;;;;5042144;28;20450;-71
2021/03/02 13:36:30;;;;;;;16.73;11.70;;;19.50;41.50;;;;;;5040119;28;20485;-71
2021/03/02 13:39:17;;;;;;;18.07;10.33;;;19.60;40.00;;;;;;5040607;28;20426;-71
2021/03/02 13:42:03;;;;;;;18.07;11.77;;;19.70;40.50;;;;;;5045127;28;20452;-70
2021/03/02 13:44:51;;;;;;;17.17;12.87;;;19.70;39.20;;;;;;5041535;28;20461;-71
2021/03/02 13:47:36;;;;;;;19.27;11.27;;;19.80;38.80;;;;;;5042707;28;20488;-71
2021/03/02 13:50:22;;;;;;;18.63;12.43;;;19.40;38.90;;;;;;5043677;28;20478;-71
2021/03/02 13:53:10;;;;;;;15.13;12.00;;;19.50;39.10;;;;;;5044253;28;20429;-71
2021/03/02 13:55:56;;;;;;;19.53;12.40;;;19.50;38.90;;;;;;5041894;28;21989;-71
2021/03/02 13:58:42;;;;;;;18.77;13.03;;;19.60;39.10;;;;;;5041851;28;20514;-71
2021/03/02 14:01:31;;;;;;;23.23;12.80;;;19.50;39.60;;;;;;5043899;28;20439;-71
2021/03/02 14:04:17;;;;;;;16.20;12.73;;;19.60;39.10;;;;;;5044871;28;20874;-71
2021/03/02 14:07:03;;;;;;;16.40;13.33;;;19.30;38.80;;;;;;5044433;28;20649;-71
2021/03/02 14:09:49;;;;;;;18.77;13.80;;;19.40;38.90;;;;;;5043969;28;20517;-71
2021/03/02 14:12:35;;;;;;;20.47;13.00;;;19.40;39.60;;;;;;5036666;28;20472;-71
2021/03/02 14:15:22;;;;;;;18.50;13.60;;;19.50;39.00;;;;;;5044795;28;20445;-71
2021/03/02 14:18:08;;;;;;;19.67;12.93;;;19.70;39.20;;;;;;5043399;28;20553;-71
2021/03/02 14:20:58;;;;;;;24.10;14.63;;;19.60;39.40;;;;;;5047751;28;20443;-71